Time;durP1;ratioP1;P1;durP2;ratioP2;P2;SDS_P1;SDS_P2;PMS_P1;PMS_P2;Temp;Humidity;BMP_temperature;BMP_pressure;BME280_temperature;BME280_humidity;BME280_pressure;Samples;Min_cycle;Max_cycle;Signal;HPM_P1;HPM_P2
2022/04/25 00:00:18;;;;;;;;;;;;;;;11.18;100.00;96886.48;1637207;86;22027;-88
2022/04/25 00:02:52;;;;;;;;;;;;;;;11.23;100.00;96888.20;1654130;85;22861;-88
2022/04/25 00:05:18;;;;;;;;;;;;;;;11.21;100.00;96884.08;1649579;85;24456;-88
2022/04/25 00:07:44;;;;;;;;;;;;;;;11.12;100.00;96876.64;1652138;86;20235;-88
2022/04/25 00:10:10;;;;;;;;;;;;;;;10.96;100.00;96882.19;1627278;87;20218;-88
2022/04/25 00:12:36;;;;;;;;;;;;;;;10.88;100.00;96879.81;1651824;86;20337;-88
2022/04/25 00:15:02;;;;;;;;;;;;;;;10.81;100.00;96876.13;1645943;85;21017;-88
2022/04/25 00:17:28;;;;;;;;;;;;;;;10.77;100.00;96877.40;1653363;85;24586;-88
2022/04/25 00:19:54;;;;;;;;;;;;;;;10.79;100.00;96875.47;1643100;86;20270;-88
2022/04/25 00:22:20;;;;;;;;;;;;;;;10.78;100.00;96880.36;1639377;86;20276;-88
2022/04/25 00:24:48;;;;;;;;;;;;;;;10.70;100.00;96882.86;1637432;86;21951;-88
2022/04/25 00:27:15;;;;;;;;;;;;;;;10.58;100.00;96887.15;1646733;86;26136;-89
2022/04/25 00:29:41;;;;;;;;;;;;;;;10.48;100.00;96881.45;1647477;86;24574;-88
2022/04/25 00:32:09;;;;;;;;;;;;;;;10.41;100.00;96873.88;1649673;86;20178;-89
2022/04/25 00:34:36;;;;;;;;;;;;;;;10.36;100.00;96873.48;1641957;86;24859;-88
2022/04/25 00:37:02;;;;;;;;;;;;;;;10.36;100.00;96872.17;1642417;86;21967;-88
2022/04/25 00:39:28;;;;;;;;;;;;;;;10.43;100.00;96876.31;1640087;86;26102;-88
2022/04/25 00:41:55;;;;;;;;;;;;;;;10.51;100.00;96872.52;1649719;86;20310;-87
2022/04/25 00:44:21;;;;;;;;;;;;;;;10.57;100.00;96865.39;1645644;86;20489;-87
2022/04/25 00:46:48;;;;;;;;;;;;;;;10.65;100.00;96866.78;1646967;86;20826;-88
2022/04/25 00:49:14;;;;;;;;;;;;;;;10.69;100.00;96864.20;1646160;86;22068;-88
2022/04/25 00:51:42;;;;;;;;;;;;;;;10.71;100.00;96866.69;1651153;86;25976;-89
2022/04/25 00:54:08;;;;;;;;;;;;;;;10.72;100.00;96867.03;1639447;86;24623;-88
2022/04/25 00:56:35;;;;;;;;;;;;;;;10.73;100.00;96861.66;1645642;86;20260;-88
2022/04/25 00:59:01;;;;;;;;;;;;;;;10.73;100.00;96863.45;1645646;86;24741;-88
2022/04/25 01:01:28;;;;;;;;;;;;;;;10.73;100.00;96866.06;1638148;86;22427;-87
2022/04/25 01:03:54;;;;;;;;;;;;;;;10.65;100.00;96873.32;1627716;86;26001;-87
2022/04/25 01:06:21;;;;;;;;;;;;;;;10.56;100.00;96876.82;1647929;86;25206;-88
2022/04/25 01:08:47;;;;;;;;;;;;;;;10.45;100.00;96875.22;1637345;86;20327;-88
2022/04/25 01:11:22;;;;;;;;;;;;;;;10.37;100.00;96877.72;1645715;85;24793;-88
2022/04/25 01:13:48;;;;;;;;;;;;;;;10.30;100.00;96874.53;1641953;86;22157;-88
2022/04/25 01:16:15;;;;;;;;;;;;;;;10.25;100.00;96878.06;1654286;86;21222;-88
2022/04/25 01:18:41;;;;;;;;;;;;;;;10.18;100.00;96877.80;1610804;87;24501;-89
2022/04/25 01:21:09;;;;;;;;;;;;;;;10.15;100.00;96875.42;1669012;84;20281;-88
2022/04/25 01:29:13;;;;;;;;;;;;;;;10.02;100.00;96880.16;1669735;85;26971;-89
2022/04/25 01:31:40;;;;;;;;;;;;;;;9.97;100.00;96881.06;1671040;85;25280;-89
2022/04/25 01:34:06;;;;;;;;;;;;;;;9.93;100.00;96878.38;1669199;84;20303;-88
2022/04/25 01:36:32;;;;;;;;;;;;;;;9.88;100.00;96876.19;1660703;85;20387;-88
2022/04/25 01:38:58;;;;;;;;;;;;;;;9.86;100.00;96878.61;1670256;85;22153;-88
2022/04/25 01:41:24;;;;;;;;;;;;;;;9.84;100.00;96876.61;1669591;85;26078;-88
2022/04/25 01:43:52;;;;;;;;;;;;;;;9.81;100.00;96874.30;1665574;85;20829;-88
2022/04/25 01:46:18;;;;;;;;;;;;;;;9.82;100.00;96872.03;1670338;85;20227;-88
2022/04/25 01:48:44;;;;;;;;;;;;;;;9.82;100.00;96875.95;1668019;85;24706;-88
2022/04/25 01:51:16;;;;;;;;;;;;;;;9.82;100.00;96872.83;1673568;85;20837;-88
2022/04/25 01:53:42;;;;;;;;;;;;;;;9.80;100.00;96873.95;1668297;85;26240;-88
2022/04/25 01:56:08;;;;;;;;;;;;;;;9.79;100.00;96871.81;1672151;84;20869;-88
2022/04/25 01:58:34;;;;;;;;;;;;;;;9.76;100.00;96867.36;1676097;85;20801;-87
2022/04/25 02:01:05;;;;;;;;;;;;;;;9.75;100.00;96872.23;1667019;85;24844;-87
2022/04/25 02:03:33;;;;;;;;;;;;;;;9.73;100.00;96870.23;1667615;85;22105;-87
2022/04/25 02:06:05;;;;;;;;;;;;;;;9.70;100.00;96871.84;1671312;85;26065;-87
2022/04/25 02:08:31;;;;;;;;;;;;;;;9.65;100.00;96874.88;1666470;84;24548;-88
2022/04/25 02:13:50;;;;;;;;;;;;;;;9.58;100.00;96881.61;1667057;84;25637;-87
2022/04/25 02:16:18;;;;;;;;;;;;;;;9.58;100.00;96877.20;1669856;85;21984;-88
2022/04/25 02:18:52;;;;;;;;;;;;;;;9.54;100.00;96873.23;1669293;85;26815;-88
2022/04/25 02:21:18;;;;;;;;;;;;;;;9.53;100.00;96874.19;1671777;84;24446;-87
2022/04/25 02:23:46;;;;;;;;;;;;;;;9.50;100.00;96874.45;1671473;84;20504;-87
2022/04/25 02:26:12;;;;;;;;;;;;;;;9.49;100.00;96879.84;1653987;85;24901;-87
2022/04/25 02:28:39;;;;;;;;;;;;;;;9.46;100.00;96877.00;1665189;85;22053;-87
2022/04/25 02:31:06;;;;;;;;;;;;;;;9.45;100.00;96879.27;1664151;85;26091;-87
2022/04/25 02:33:32;;;;;;;;;;;;;;;9.43;100.00;96882.52;1663564;85;24469;-87
2022/04/25 02:36:04;;;;;;;;;;;;;;;9.41;100.00;96878.38;1634099;86;20472;-88
2022/04/25 02:38:31;;;;;;;;;;;;;;;9.40;100.00;96876.72;1665391;85;24678;-87
2022/04/25 02:41:06;;;;;;;;;;;;;;;9.39;100.00;96886.34;1663479;85;22008;-88
2022/04/25 02:43:42;;;;;;;;;;;;;;;9.36;100.00;96886.63;1664732;85;26055;-88
2022/04/25 02:46:12;;;;;;;;;;;;;;;9.34;100.00;96885.94;1664671;85;24607;-88
2022/04/25 02:48:39;;;;;;;;;;;;;;;9.29;100.00;96886.83;1668246;85;20480;-88
2022/04/25 02:51:07;;;;;;;;;;;;;;;9.26;100.00;96889.72;1668340;85;24805;-88
2022/04/25 02:53:33;;;;;;;;;;;;;;;9.24;100.00;96886.41;1658604;85;22317;-87
2022/04/25 02:55:59;;;;;;;;;;;;;;;9.23;100.00;96887.37;1655647;85;26047;-87
2022/04/25 02:58:26;;;;;;;;;;;;;;;9.23;100.00;96887.37;1660296;85;24444;-86
2022/04/25 03:00:52;;;;;;;;;;;;;;;9.23;100.00;96897.33;1656818;85;20684;-86
2022/04/25 03:03:24;;;;;;;;;;;;;;;9.24;100.00;96895.55;1664329;85;24783;-86
2022/04/25 03:05:56;;;;;;;;;;;;;;;9.25;100.00;96897.20;1669754;85;22748;-86
2022/04/25 03:08:27;;;;;;;;;;;;;;;9.27;100.00;96895.77;1662633;85;26024;-87
2022/04/25 03:10:52;;;;;;;;;;;;;;;9.27;100.00;96895.30;1658472;85;25205;-87
2022/04/25 03:13:19;;;;;;;;;;;;;;;9.31;100.00;96891.44;1663667;85;20213;-87
2022/04/25 03:15:47;;;;;;;;;;;;;;;9.38;100.00;96893.83;1662458;85;24762;-87
2022/04/25 03:18:15;;;;;;;;;;;;;;;9.35;100.00;96896.73;1658815;85;22123;-88
2022/04/25 03:20:43;;;;;;;;;;;;;;;9.27;100.00;96894.47;1666384;85;26036;-87
2022/04/25 03:23:11;;;;;;;;;;;;;;;9.23;100.00;96902.55;1671333;84;24412;-87
2022/04/25 03:25:38;;;;;;;;;;;;;;;9.24;100.00;96904.69;1675075;84;20327;-87
2022/04/25 03:28:04;;;;;;;;;;;;;;;9.29;100.00;96902.97;1672066;85;24842;-87
2022/04/25 03:30:32;;;;;;;;;;;;;;;9.34;100.00;96900.77;1672782;85;22022;-87
2022/04/25 03:32:58;;;;;;;;;;;;;;;9.38;100.00;96905.58;1665013;85;26044;-87
2022/04/25 03:35:24;;;;;;;;;;;;;;;9.48;100.00;96909.04;1672537;85;24410;-88
2022/04/25 03:37:51;;;;;;;;;;;;;;;9.52;100.00;96905.66;1667921;85;20554;-88
2022/04/25 03:40:17;;;;;;;;;;;;;;;9.54;100.00;96913.72;1671904;85;24716;-88
2022/04/25 03:42:49;;;;;;;;;;;;;;;9.60;100.00;96918.87;1666588;85;22087;-88
2022/04/25 03:45:17;;;;;;;;;;;;;;;9.61;100.00;96917.40;1671238;85;26056;-88
2022/04/25 03:47:43;;;;;;;;;;;;;;;9.69;100.00;96920.64;1670206;85;24457;-88
2022/04/25 03:50:10;;;;;;;;;;;;;;;9.73;100.00;96923.31;1668024;85;20486;-88
2022/04/25 03:52:36;;;;;;;;;;;;;;;9.71;100.00;96920.00;1669939;85;24809;-88
2022/04/25 03:57:52;;;;;;;;;;;;;;;9.62;100.00;96926.06;1674124;85;26240;-88
2022/04/25 04:00:21;;;;;;;;;;;;;;;9.63;100.00;96925.94;1670910;85;24512;-88
2022/04/25 04:02:47;;;;;;;;;;;;;;;9.65;100.00;96922.68;1667910;85;20479;-88
2022/04/25 04:05:13;;;;;;;;;;;;;;;9.52;100.00;96923.46;1669616;85;20242;-88
2022/04/25 04:07:40;;;;;;;;;;;;;;;9.38;100.00;96918.62;1669646;84;22080;-88
2022/04/25 04:10:06;;;;;;;;;;;;;;;9.27;100.00;96924.01;1669917;85;26026;-88
2022/04/25 04:12:34;;;;;;;;;;;;;;;9.21;100.00;96918.85;1667839;84;24037;-88
2022/04/25 04:15:02;;;;;;;;;;;;;;;9.32;100.00;96923.59;1669912;85;20173;-88
2022/04/25 04:17:28;;;;;;;;;;;;;;;9.45;100.00;96921.05;1670932;85;24786;-88
2022/04/25 04:19:54;;;;;;;;;;;;;;;9.52;100.00;96924.77;1668460;85;21916;-87
2022/04/25 04:22:28;;;;;;;;;;;;;;;9.51;100.00;96924.41;1671863;84;26131;-88
2022/04/25 04:25:00;;;;;;;;;;;;;;;9.59;100.00;96923.27;1669044;85;24431;-88
2022/04/25 04:27:31;;;;;;;;;;;;;;;9.74;100.00;96927.58;1674170;85;20279;-87
2022/04/25 04:29:55;;;;;;;;;;;;;;;9.74;100.00;96925.44;1675968;85;24768;-87
2022/04/25 04:32:30;;;;;;;;;;;;;;;9.68;100.00;96925.52;1667220;85;22563;-87
2022/04/25 04:35:01;;;;;;;;;;;;;;;9.64;100.00;96930.20;1670300;85;26148;-87
2022/04/25 04:37:25;;;;;;;;;;;;;;;9.81;100.00;96929.16;1669607;85;24739;-87
2022/04/25 04:42:42;;;;;;;;;;;;;;;9.94;100.00;96940.12;1669217;85;24949;-87
2022/04/25 04:45:09;;;;;;;;;;;;;;;9.98;100.00;96936.30;1671169;85;22158;-89
2022/04/25 04:47:35;;;;;;;;;;;;;;;10.03;100.00;96939.31;1670577;85;26077;-87
2022/04/25 04:50:02;;;;;;;;;;;;;;;9.95;100.00;96937.37;1674102;85;24576;-88
2022/04/25 04:52:42;;;;;;;;;;;;;;;9.87;100.00;96941.67;1672471;85;20196;-88
2022/04/25 04:55:08;;;;;;;;;;;;;;;9.89;100.00;96948.87;1669438;85;24842;-87
2022/04/25 04:57:34;;;;;;;;;;;;;;;9.81;100.00;96948.27;1671916;84;22041;-87
2022/04/25 05:00:00;;;;;;;;;;;;;;;9.82;100.00;96950.41;1671593;85;20970;-87
2022/04/25 05:02:26;;;;;;;;;;;;;;;9.86;100.00;96955.69;1670412;85;20305;-87
2022/04/25 05:04:53;;;;;;;;;;;;;;;9.92;100.00;96945.99;1666625;85;20507;-87
2022/04/25 05:07:19;;;;;;;;;;;;;;;9.95;100.00;96947.84;1669083;85;24919;-87
2022/04/25 05:09:45;;;;;;;;;;;;;;;9.92;100.00;96948.12;1668031;85;21932;-88
2022/04/25 05:12:11;;;;;;;;;;;;;;;9.93;100.00;96949.75;1668362;85;26077;-87
2022/04/25 05:14:37;;;;;;;;;;;;;;;9.99;100.00;96949.67;1668653;85;24609;-87
2022/04/25 05:17:03;;;;;;;;;;;;;;;10.02;100.00;96954.64;1668637;85;20290;-87
2022/04/25 05:19:29;;;;;;;;;;;;;;;9.91;100.00;96953.00;1668180;85;24806;-88
2022/04/25 05:21:55;;;;;;;;;;;;;;;9.88;100.00;96965.02;1672469;85;20944;-87
2022/04/25 05:24:21;;;;;;;;;;;;;;;9.91;100.00;96965.24;1672099;85;21057;-87
2022/04/25 05:26:48;;;;;;;;;;;;;;;9.93;100.00;96964.12;1673867;85;20530;-87
2022/04/25 05:29:15;;;;;;;;;;;;;;;9.92;100.00;96975.56;1664374;85;20168;-87
2022/04/25 05:31:41;;;;;;;;;;;;;;;9.87;100.00;96975.13;1663360;85;24773;-87
2022/04/25 05:34:07;;;;;;;;;;;;;;;9.79;100.00;96975.01;1660861;85;20323;-87
2022/04/25 05:36:33;;;;;;;;;;;;;;;9.73;100.00;96979.47;1664134;85;21023;-87
2022/04/25 05:39:01;;;;;;;;;;;;;;;9.69;100.00;96975.97;1667398;84;20815;-87
2022/04/25 05:41:27;;;;;;;;;;;;;;;9.66;100.00;96977.88;1666441;85;20222;-87
2022/04/25 05:43:59;;;;;;;;;;;;;;;9.69;100.00;96977.28;1669118;84;24803;-87
2022/04/25 05:46:27;;;;;;;;;;;;;;;9.73;100.00;96974.73;1670452;84;22010;-87
2022/04/25 05:54:22;;;;;;;;;;;;;;;10.09;100.00;96976.14;1660611;86;20508;-87
2022/04/25 05:56:48;;;;;;;;;;;;;;;10.30;100.00;96977.81;1655798;86;20297;-87
2022/04/25 05:59:14;;;;;;;;;;;;;;;10.48;100.00;96984.77;1654458;86;20236;-86
2022/04/25 06:01:40;;;;;;;;;;;;;;;10.61;100.00;96979.72;1671829;85;25988;-86
2022/04/25 06:04:06;;;;;;;;;;;;;;;10.68;100.00;96983.41;1663291;85;24377;-86
2022/04/25 06:06:32;;;;;;;;;;;;;;;10.74;100.00;96981.53;1658034;85;20233;-87
2022/04/25 06:09:00;;;;;;;;;;;;;;;10.88;100.00;96984.98;1663217;85;20267;-87
2022/04/25 06:11:29;;;;;;;;;;;;;;;11.00;100.00;96986.45;1663392;85;22689;-87
2022/04/25 06:13:56;;;;;;;;;;;;;;;11.11;100.00;96982.81;1659435;85;25975;-87
2022/04/25 06:16:22;;;;;;;;;;;;;;;11.18;100.00;96981.27;1662634;85;24420;-86
2022/04/25 06:18:48;;;;;;;;;;;;;;;11.17;100.00;96980.44;1655967;85;20249;-87
2022/04/25 06:21:14;;;;;;;;;;;;;;;11.24;100.00;96979.34;1653451;85;24718;-87
2022/04/25 06:23:40;;;;;;;;;;;;;;;11.32;100.00;96983.37;1648393;85;20233;-87
2022/04/25 06:26:06;;;;;;;;;;;;;;;11.37;100.00;96987.69;1649959;85;20890;-86
2022/04/25 06:28:32;;;;;;;;;;;;;;;11.41;100.00;96984.27;1650035;86;20350;-87
2022/04/25 06:30:59;;;;;;;;;;;;;;;11.45;100.00;96986.48;1650585;86;20174;-87
2022/04/25 06:33:25;;;;;;;;;;;;;;;11.52;100.00;96988.82;1652481;85;24755;-87
2022/04/25 06:35:51;;;;;;;;;;;;;;;11.60;100.00;96988.09;1658588;86;20811;-88
2022/04/25 06:38:22;;;;;;;;;;;;;;;11.77;100.00;96986.00;1652015;85;26014;-87
2022/04/25 06:40:47;;;;;;;;;;;;;;;11.89;100.00;96983.47;1632979;86;20290;-87
2022/04/25 06:43:14;;;;;;;;;;;;;;;11.97;100.00;96990.59;1652064;86;20159;-87
2022/04/25 06:45:45;;;;;;;;;;;;;;;12.06;100.00;96989.67;1647847;85;24891;-87
2022/04/25 06:48:11;;;;;;;;;;;;;;;12.07;100.00;96991.33;1659173;85;21963;-87
2022/04/25 06:50:37;;;;;;;;;;;;;;;12.02;100.00;96993.09;1657152;86;25970;-87
2022/04/25 06:53:03;;;;;;;;;;;;;;;12.00;100.00;96986.38;1660271;86;20347;-87
2022/04/25 06:55:31;;;;;;;;;;;;;;;11.97;100.00;96987.48;1635372;87;20303;-88
2022/04/25 06:58:00;;;;;;;;;;;;;;;11.90;100.00;96992.98;1662310;85;24786;-88
2022/04/25 07:00:27;;;;;;;;;;;;;;;11.87;100.00;96985.44;1649503;86;21933;-88
2022/04/25 07:02:53;;;;;;;;;;;;;;;11.94;100.00;96998.28;1660459;85;26196;-87
2022/04/25 07:05:19;;;;;;;;;;;;;;;11.99;100.00;96988.66;1656023;86;20296;-87
2022/04/25 07:07:45;;;;;;;;;;;;;;;12.08;100.00;96988.56;1656884;86;20178;-88
2022/04/25 07:10:11;;;;;;;;;;;;;;;12.19;100.00;96994.53;1658653;85;24787;-87
2022/04/25 07:12:37;;;;;;;;;;;;;;;12.25;100.00;97000.00;1657250;86;20321;-86
2022/04/25 07:15:04;;;;;;;;;;;;;;;12.27;100.00;96996.75;1657476;86;21308;-87
2022/04/25 07:17:30;;;;;;;;;;;;;;;12.25;100.00;97003.94;1644106;86;24507;-87
2022/04/25 07:19:56;;;;;;;;;;;;;;;12.32;100.00;97004.16;1657896;85;20249;-88
2022/04/25 07:30:35;;;;;;;;;;;;;;;12.52;100.00;97015.61;1637992;86;24588;-86
2022/04/25 07:33:02;;;;;;;;;;;;;;;12.53;100.00;97011.19;1642939;87;20821;-86
2022/04/25 07:35:28;;;;;;;;;;;;;;;12.62;100.00;97015.51;1638833;86;24896;-87
2022/04/25 07:37:57;;;;;;;;;;;;;;;12.62;100.00;97012.88;1634734;87;22025;-87
2022/04/25 07:40:23;;;;;;;;;;;;;;;12.60;100.00;97011.41;1651539;85;25998;-86
2022/04/25 07:42:49;;;;;;;;;;;;;;;12.58;100.00;97015.48;1651042;86;24609;-87
2022/04/25 07:45:22;;;;;;;;;;;;;;;12.58;100.00;97016.80;1647283;86;20224;-88
2022/04/25 07:47:48;;;;;;;;;;;;;;;12.59;100.00;97017.14;1648248;86;24830;-88
2022/04/25 07:50:15;;;;;;;;;;;;;;;12.64;100.00;97024.06;1623383;86;20359;-88
2022/04/25 07:52:41;;;;;;;;;;;;;;;12.71;100.00;97022.44;1635364;86;25978;-88
2022/04/25 07:55:08;;;;;;;;;;;;;;;12.81;100.00;97029.75;1636979;87;24378;-87
2022/04/25 07:57:34;;;;;;;;;;;;;;;12.86;100.00;97035.36;1651584;85;20560;-87
2022/04/25 08:00:04;;;;;;;;;;;;;;;12.89;100.00;97040.77;1637912;87;24794;-87
2022/04/25 08:02:30;;;;;;;;;;;;;;;12.87;100.00;97042.75;1643183;87;22058;-87
2022/04/25 08:04:56;;;;;;;;;;;;;;;12.82;100.00;97041.88;1639955;87;26068;-88
2022/04/25 08:07:23;;;;;;;;;;;;;;;12.88;100.00;97043.05;1641431;86;20912;-88
2022/04/25 08:09:56;;;;;;;;;;;;;;;12.91;100.00;97042.77;1638570;87;20316;-88
2022/04/25 08:18:01;;;;;;;;;;;;;;;12.67;100.00;97044.73;1639151;87;26858;-88
2022/04/25 08:20:34;;;;;;;;;;;;;;;12.65;100.00;97048.51;1654271;86;25431;-88
2022/04/25 08:23:02;;;;;;;;;;;;;;;12.63;100.00;97048.66;1642430;86;20332;-88
2022/04/25 08:25:30;;;;;;;;;;;;;;;12.65;100.00;97055.89;1638632;87;25426;-88
2022/04/25 08:27:58;;;;;;;;;;;;;;;12.72;100.00;97056.91;1630815;87;22080;-88
2022/04/25 08:30:23;;;;;;;;;;;;;;;12.89;100.00;97057.35;1660203;85;26002;-88
2022/04/25 08:32:50;;;;;;;;;;;;;;;12.99;100.00;97059.86;1666467;84;24490;-87
2022/04/25 08:35:15;;;;;;;;;;;;;;;12.99;100.00;97068.56;1671334;85;20266;-88
2022/04/25 08:37:42;;;;;;;;;;;;;;;12.96;100.00;97067.58;1668406;85;24802;-87
2022/04/25 08:40:08;;;;;;;;;;;;;;;12.98;100.00;97068.22;1668298;85;22944;-87
2022/04/25 08:42:35;;;;;;;;;;;;;;;12.96;100.00;97068.06;1670625;85;26041;-87
2022/04/25 08:45:07;;;;;;;;;;;;;;;12.95;100.00;97071.17;1672027;85;23886;-88
2022/04/25 08:47:35;;;;;;;;;;;;;;;12.90;100.00;97078.70;1671651;85;20245;-88
2022/04/25 08:50:01;;;;;;;;;;;;;;;12.85;100.00;97084.91;1667992;85;25453;-87
2022/04/25 08:52:27;;;;;;;;;;;;;;;12.82;100.00;97085.19;1668316;85;20280;-88
2022/04/25 08:55:00;;;;;;;;;;;;;;;12.85;100.00;97080.97;1669904;84;25960;-88
2022/04/25 08:57:39;;;;;;;;;;;;;;;12.88;100.00;97079.81;1654413;85;24702;-87
2022/04/25 09:00:04;;;;;;;;;;;;;;;12.94;100.00;97092.33;1667348;84;20316;-89
2022/04/25 09:02:30;;;;;;;;;;;;;;;12.94;100.00;97085.77;1667842;85;24789;-87
2022/04/25 09:04:59;;;;;;;;;;;;;;;12.93;100.00;97082.80;1669739;85;22073;-87
2022/04/25 09:07:26;;;;;;;;;;;;;;;12.94;100.00;97096.27;1663926;85;25507;-87
2022/04/25 09:10:00;;;;;;;;;;;;;;;12.95;100.00;97092.19;1669011;84;25185;-87
2022/04/25 09:12:26;;;;;;;;;;;;;;;13.00;100.00;97091.71;1663416;85;20213;-87
2022/04/25 09:14:53;;;;;;;;;;;;;;;12.98;100.00;97099.73;1673158;85;24888;-87
2022/04/25 09:17:19;;;;;;;;;;;;;;;12.98;100.00;97095.80;1668966;85;22085;-87
2022/04/25 09:19:45;;;;;;;;;;;;;;;13.03;100.00;97091.91;1665346;85;25967;-88
2022/04/25 09:22:12;;;;;;;;;;;;;;;13.07;100.00;97095.38;1666825;85;24399;-88
2022/04/25 09:24:47;;;;;;;;;;;;;;;13.12;100.00;97090.52;1658334;85;20214;-88
2022/04/25 09:27:17;;;;;;;;;;;;;;;13.19;100.00;97098.11;1656422;86;24803;-88
2022/04/25 09:29:42;;;;;;;;;;;;;;;13.27;100.00;97098.63;1653229;85;21941;-88
2022/04/25 09:32:09;;;;;;;;;;;;;;;13.29;100.00;97099.30;1648805;86;26052;-87
2022/04/25 09:37:23;;;;;;;;;;;;;;;13.37;100.00;97110.67;1650203;86;20219;-88
2022/04/25 09:39:49;;;;;;;;;;;;;;;13.47;100.00;97115.00;1629240;86;24880;-88
2022/04/25 09:42:17;;;;;;;;;;;;;;;13.49;100.00;97116.47;1640429;86;20869;-88
2022/04/25 09:44:56;;;;;;;;;;;;;;;13.53;100.00;97112.55;1647372;86;26019;-88
2022/04/25 09:47:32;;;;;;;;;;;;;;;13.55;100.00;97115.02;1649165;86;25362;-88
2022/04/25 09:50:02;;;;;;;;;;;;;;;13.56;100.00;97112.25;1661265;86;20180;-87
2022/04/25 09:52:29;;;;;;;;;;;;;;;13.60;100.00;97111.42;1659692;85;24923;-88
2022/04/25 09:54:58;;;;;;;;;;;;;;;13.66;100.00;97110.31;1661845;86;22067;-88
2022/04/25 09:57:30;;;;;;;;;;;;;;;13.80;100.00;97113.64;1658497;86;26148;-88
2022/04/25 09:59:57;;;;;;;;;;;;;;;13.91;100.00;97115.67;1653340;86;24411;-88
2022/04/25 10:02:23;;;;;;;;;;;;;;;13.94;100.00;97114.84;1641199;86;20524;-88
2022/04/25 10:04:49;;;;;;;;;;;;;;;13.91;100.00;97108.58;1638492;87;24756;-88
2022/04/25 10:07:16;;;;;;;;;;;;;;;13.92;100.00;97112.03;1640305;87;21947;-88
2022/04/25 10:09:44;;;;;;;;;;;;;;;13.91;100.00;97114.35;1641643;87;26049;-88
2022/04/25 10:12:10;;;;;;;;;;;;;;;13.90;100.00;97112.21;1660976;85;25395;-88
2022/04/25 10:14:36;;;;;;;;;;;;;;;13.96;100.00;97112.06;1643712;87;20312;-88
2022/04/25 10:17:03;;;;;;;;;;;;;;;13.93;100.00;97114.51;1625140;87;24476;-88
2022/04/25 10:19:32;;;;;;;;;;;;;;;13.88;100.00;97113.34;1661034;86;21958;-88
2022/04/25 10:21:58;;;;;;;;;;;;;;;13.96;100.00;97112.89;1660399;86;27345;-88
2022/04/25 10:24:24;;;;;;;;;;;;;;;14.03;100.00;97108.61;1652775;86;24682;-88
2022/04/25 10:26:51;;;;;;;;;;;;;;;14.11;100.00;97109.96;1646367;87;20507;-88
2022/04/25 10:29:19;;;;;;;;;;;;;;;14.18;100.00;97108.30;1645733;87;24921;-88
2022/04/25 10:31:47;;;;;;;;;;;;;;;14.20;100.00;97108.16;1646571;86;21963;-89
2022/04/25 10:34:14;;;;;;;;;;;;;;;14.14;100.00;97102.22;1623656;87;26028;-88
2022/04/25 10:36:42;;;;;;;;;;;;;;;14.07;100.00;97099.92;1644452;85;24458;-89
2022/04/25 10:39:16;;;;;;;;;;;;;;;14.00;100.00;97097.59;1644451;85;20222;-88
2022/04/25 10:44:43;;;;;;;;;;;;;;;13.77;100.00;97095.56;1666119;84;22134;-89
2022/04/25 10:47:13;;;;;;;;;;;;;;;13.62;100.00;97102.42;1668260;85;26805;-89
2022/04/25 10:49:47;;;;;;;;;;;;;;;13.59;100.00;97121.11;1670155;85;24480;-89
2022/04/25 10:52:33;;;;;;;;;;;;;;;13.51;100.00;97118.95;1669860;85;20289;-88
2022/04/25 10:55:20;;;;;;;;;;;;;;;13.44;100.00;97126.64;1664379;85;24189;-89
2022/04/25 10:58:07;;;;;;;;;;;;;;;13.37;100.00;97125.61;1667286;85;22190;-89
2022/04/25 11:00:42;;;;;;;;;;;;;;;13.34;100.00;97132.50;1670765;85;25975;-89
2022/04/25 11:03:14;;;;;;;;;;;;;;;13.34;100.00;97133.33;1668594;85;24491;-88
2022/04/25 11:05:39;;;;;;;;;;;;;;;13.28;100.00;97135.27;1665833;85;20170;-88
2022/04/25 11:08:19;;;;;;;;;;;;;;;13.18;100.00;97145.55;1667124;84;24846;-88
2022/04/25 11:10:46;;;;;;;;;;;;;;;13.07;100.00;97141.34;1667239;84;21991;-88
2022/04/25 11:13:12;;;;;;;;;;;;;;;12.91;100.00;97140.74;1670359;85;25981;-88
2022/04/25 11:15:40;;;;;;;;;;;;;;;12.83;100.00;97152.48;1671095;84;24470;-88
2022/04/25 11:18:27;;;;;;;;;;;;;;;12.87;100.00;97173.52;1667600;84;20201;-88
2022/04/25 11:20:56;;;;;;;;;;;;;;;12.80;100.00;97197.92;1672671;84;25579;-88
2022/04/25 11:23:23;;;;;;;;;;;;;;;12.60;100.00;97208.24;1669111;85;22082;-89
2022/04/25 11:25:49;;;;;;;;;;;;;;;12.31;100.00;97215.81;1656949;85;25460;-89
2022/04/25 11:28:17;;;;;;;;;;;;;;;12.10;100.00;97225.27;1661085;85;24425;-89
2022/04/25 11:30:43;;;;;;;;;;;;;;;11.95;100.00;97220.14;1660720;86;20195;-88
2022/04/25 11:33:10;;;;;;;;;;;;;;;11.82;100.00;97231.94;1639290;86;24812;-88
2022/04/25 11:35:44;;;;;;;;;;;;;;;11.76;100.00;97233.34;1661201;84;20297;-88
2022/04/25 11:38:10;;;;;;;;;;;;;;;11.73;100.00;97237.54;1663697;86;26043;-88
2022/04/25 11:40:36;;;;;;;;;;;;;;;11.76;100.00;97238.58;1664037;86;24381;-88
2022/04/25 11:43:05;;;;;;;;;;;;;;;11.67;100.00;97240.73;1664949;86;20562;-89
2022/04/25 11:45:31;;;;;;;;;;;;;;;11.64;100.00;97240.52;1664913;86;24828;-88
2022/04/25 11:47:58;;;;;;;;;;;;;;;11.65;100.00;97243.97;1663803;86;20781;-88
2022/04/25 11:50:25;;;;;;;;;;;;;;;11.66;100.00;97246.45;1663905;86;26063;-88
2022/04/25 11:52:52;;;;;;;;;;;;;;;11.65;100.00;97245.28;1663970;86;24516;-88
2022/04/25 11:55:20;;;;;;;;;;;;;;;11.66;100.00;97254.80;1663861;86;20274;-88
2022/04/25 11:57:46;;;;;;;;;;;;;;;11.57;100.00;97255.63;1640453;86;24967;-88
2022/04/25 12:00:14;;;;;;;;;;;;;;;11.53;100.00;97255.58;1637199;87;22036;-88
2022/04/25 12:02:41;;;;;;;;;;;;;;;11.58;100.00;97258.59;1632646;86;26793;-88
2022/04/25 12:05:08;;;;;;;;;;;;;;;11.64;100.00;97260.17;1665052;86;24484;-89
2022/04/25 12:07:37;;;;;;;;;;;;;;;11.71;100.00;97260.44;1661444;86;20324;-89
2022/04/25 12:15:36;;;;;;;;;;;;;;;11.86;100.00;97269.52;1664285;85;26069;-88
2022/04/25 12:18:13;;;;;;;;;;;;;;;11.80;100.00;97274.50;1666723;85;24443;-89
2022/04/25 12:20:40;;;;;;;;;;;;;;;11.73;100.00;97272.44;1657861;85;20488;-89
2022/04/25 12:23:07;;;;;;;;;;;;;;;11.70;100.00;97273.19;1659289;85;24793;-89
2022/04/25 12:25:34;;;;;;;;;;;;;;;11.68;100.00;97275.94;1667369;85;21997;-89
2022/04/25 12:28:07;;;;;;;;;;;;;;;11.61;100.00;97276.67;1668916;85;26089;-89
2022/04/25 12:30:47;;;;;;;;;;;;;;;11.63;100.00;97283.89;1666392;85;24505;-89
2022/04/25 12:33:16;;;;;;;;;;;;;;;11.64;100.00;97281.61;1666500;85;20447;-89
2022/04/25 12:35:43;;;;;;;;;;;;;;;11.65;100.00;97288.03;1669599;85;24748;-89
2022/04/25 12:38:10;;;;;;;;;;;;;;;11.69;100.00;97288.09;1673647;84;22072;-88
2022/04/25 12:40:53;;;;;;;;;;;;;;;11.65;100.00;97290.66;1673784;85;26050;-88
2022/04/25 12:43:39;;;;;;;;;;;;;;;11.67;100.00;97297.08;1666648;85;25218;-89
2022/04/25 12:46:07;;;;;;;;;;;;;;;11.62;100.00;97300.09;1667721;85;20333;-89
2022/04/25 12:48:52;;;;;;;;;;;;;;;11.55;100.00;97305.58;1668466;85;24681;-89
2022/04/25 12:51:28;;;;;;;;;;;;;;;11.48;100.00;97307.09;1673542;85;22084;-88
2022/04/25 12:53:54;;;;;;;;;;;;;;;11.42;100.00;97304.20;1669677;85;26795;-89
2022/04/25 12:56:28;;;;;;;;;;;;;;;11.42;100.00;97309.44;1667334;84;24503;-89
2022/04/25 12:58:54;;;;;;;;;;;;;;;11.42;100.00;97308.96;1671255;85;20140;-89
2022/04/25 13:01:26;;;;;;;;;;;;;;;11.44;100.00;97312.76;1669991;84;20536;-89
2022/04/25 13:04:11;;;;;;;;;;;;;;;11.42;100.00;97315.51;1670828;85;21932;-88
2022/04/25 13:06:37;;;;;;;;;;;;;;;11.54;100.00;97314.88;1668391;85;26103;-89
2022/04/25 13:09:04;;;;;;;;;;;;;;;11.60;100.00;97317.77;1669266;85;24581;-90
2022/04/25 13:11:30;;;;;;;;;;;;;;;11.69;100.00;97311.67;1667769;85;20479;-89
2022/04/25 13:13:57;;;;;;;;;;;;;;;11.76;100.00;97319.84;1670339;84;24742;-88
2022/04/25 13:16:24;;;;;;;;;;;;;;;11.85;100.00;97316.83;1670671;85;22037;-88
2022/04/25 13:18:50;;;;;;;;;;;;;;;12.00;100.00;97317.54;1671428;85;25425;-88
2022/04/25 13:21:22;;;;;;;;;;;;;;;12.09;100.00;97318.50;1667059;85;24429;-88
2022/04/25 13:23:49;;;;;;;;;;;;;;;12.13;100.00;97318.54;1669858;85;20339;-88
2022/04/25 13:26:16;;;;;;;;;;;;;;;12.13;100.00;97323.30;1654614;85;24839;-89
2022/04/25 13:28:42;;;;;;;;;;;;;;;12.11;100.00;97327.02;1652367;86;22074;-89